Airfield :
LOGIN :

Register | Disclaimer

   EN    FR    IT 

 










Legend :    VFR   Marginal VFR   IFR   Intensive IFR   Very Intensive IFR
Visi :
Ceiling :
>= 8 km
>= 3000ft
5 to 8 km
1000 to 3000 ft
1500m to 5 km
500 to 1000 ft
800 to 1500m
200 to 500 ft
< 800m
< 200 ft
Symbols :   Thunderstorms  Fog  Heavy snow  Heavy precipitations  Wind > 20 kt
SIGMETs :     Misc.  Thunderstorms  Icing  Turbulence  Mountain Waves  Volcanic Ashes






- Airport Elevation : 355 ft
- IATA code : VBS


LIPO - Montichiari - Brescia

CURRENT METAR :
  • 011220Z AUTO 25005KT 9999 SCT082/// 06/04 Q1018

EXPIRED METARs :
  • 011150Z AUTO 23004KT 200V260 9999 SCT078/// 06/04 Q1018
  • 011120Z AUTO 24005KT 9999 BKN079/// 06/04 Q1018
  • 011050Z AUTO 25003KT 9999 OVC078/// 06/04 Q1018
  • 011020Z AUTO 25004KT 9999 BKN077/// 05/04 Q1019
  • 010950Z AUTO VRB02KT 9000 BKN077/// 04/03 Q1019

TAF TAF LIPO
Valid from the 01 at 12:00 until the 02 at 12:00 UTC


011100Z 0112/0212 VRB05KT 9999 SCT060
BECMG 0202/0204 3000 -RA BR BKN014



MET'MAP, your aeronautical weather chart ! - Copyright ORBIFLY December 2007 - Disclaimer

ORBIFLY MET'MAP TEAM :

Programming & Development : Alexandra Zaïnal
Original concept : Baudouin d'Aumeries
Technical & hardware support : Manuel Goepfert
Assistance : Marc-Olivier Méhu




SOURCES & CREDITS :

   NOAA